Terminal Aerodrome Forecast
Issued by NWS

Home | Current Version | Previous Version | Text Only | Print | Product List | Glossary On
Versions: 1 2 3 4 5 6 7 8 9 10 11 12 13 14 15 16 17 18
995
FTUS43 KGRR 170311 AAB
TAFLAN
TAF AMD
KLAN 170311Z 1703/1724 10010KT 4SM -RA BR OVC007
      TEMPO 1703/1706 3SM -FZRA BR OVC004
     FM171300 22007KT 3/4SM BR VCSH OVC002
     FM171400 21006KT 1/2SM -RA FG OVC001
     FM171500 22007KT 1 1/2SM -RA BR OVC003=

USA.gov is the U.S. government's official web portal to all federal, state and local government web resources and services.